Skip Navigation Links Skip Navigation Links

Current Weather

Rocky Mount-Wilson Rgnl, Rocky Mount, N.C.

For information only: do not use for flight planning or navigation.
Latest weather
Observation time Friday, December 4, 2020 2:53 AM EST
Local time Friday, December 4, 2020 4:00 AM EST
Flight conditions Visual Meteorological Conditions
Winds
Wind speed calm
Visibility 10 mi.
Sky condition
Ceiling unlimited
Sky clear
Temperature 39°F
Dewpoint 34°F
Altimeter 30.25 in.Hg
Derived measurements
Relative humidity 82%
Wind chill 39°F
Density altitude -1464 ft.
Sea-level pressure 30.25 in.Hg
Remarks
Fully automated report.
Automated weather observing station with precipitation discriminator.
METAR KRWI 040753Z AUTO 00000KT 10SM CLR 04/01 A3025 RMK AO2 SLP245 T00390011

Settings

Location code

InnerDrive.Weather 4.0.6770.0 Release CLR 4.0.30319.42000
Copyright ©2018 Inner Drive Technology. All rights reserved. Portions Copyright ©1986-2018 David Braverman.

Find weather

Site navigation


Skip Navigation Links

Place info

Page info

PayPal - The safer, easier way to pay online!

Return home.

Copyright ©2020 Inner Drive Technology. Purveyors of fine, hand-crafted computer software. Page printed 2020-12-04T09:00:37 UTC.